This is the latest recevied weather packets stored in our database for station/object KC9DNQ-3. If no packets are shown the sender has not sent any weather packets the latest 1 day(s).
| Time | Temp. | Humidity | Pressure | Rain* | Wind** | Luminosity | Snow |
|---|---|---|---|---|---|---|---|
| 1778023508 | 12.78° C | 41% | 1007.7 hPa | 0 mm | 1.34 m/s, 302° | 69 W/m² | - |
| 1778023208 | 12.78° C | 42% | 1007.7 hPa | 0 mm | 1.34 m/s, 306° | 76 W/m² | - |
| 1778022909 | 12.78° C | 40% | 1007.7 hPa | 0 mm | 1.79 m/s, 297° | 72 W/m² | - |
| 1778022608 | 12.78° C | 44% | 1007.7 hPa | 0 mm | 1.34 m/s, 288° | 86 W/m² | - |
| 1778022309 | 12.78° C | 43% | 1007.8 hPa | 0 mm | 1.34 m/s, 298° | 93 W/m² | - |
| 1778022008 | 12.78° C | 41% | 1007.8 hPa | 0 mm | 1.34 m/s, 302° | 116 W/m² | - |
| 1778021708 | 12.78° C | 42% | 1007.8 hPa | 0 mm | 1.34 m/s, 310° | 105 W/m² | - |
| 1778021409 | 12.78° C | 40% | 1007.9 hPa | 0 mm | 1.79 m/s, 316° | 130 W/m² | - |
| 1778021109 | 12.78° C | 41% | 1008 hPa | 0 mm | 1.79 m/s, 305° | 137 W/m² | - |
| 1778020808 | 12.78° C | 44% | 1008 hPa | 0 mm | 1.34 m/s, 280° | 107 W/m² | - |
| 1778020508 | 12.78° C | 42% | 1008 hPa | 0 mm | 1.34 m/s, 320° | 153 W/m² | - |
| 1778020216 | 12.78° C | 41% | 1008 hPa | 0 mm | 2.24 m/s, 301° | 127 W/m² | - |
| 1778019908 | 13.33° C | 45% | 1008 hPa | 0 mm | 0.89 m/s, 294° | 109 W/m² | - |
| 1778019609 | 12.78° C | 43% | 1008.1 hPa | 0 mm | 2.24 m/s, 314° | 144 W/m² | - |
| 1778019309 | 12.78° C | 43% | 1008 hPa | 0 mm | 1.79 m/s, 248° | 171 W/m² | - |
| 1778019009 | 12.78° C | 45% | 1008 hPa | 0 mm | 1.34 m/s, 286° | 179 W/m² | - |
| 1778018708 | 12.78° C | 48% | 1008 hPa | 0 mm | 1.34 m/s, 306° | 179 W/m² | - |
| 1778018408 | 12.78° C | 45% | 1008 hPa | 0 mm | 1.34 m/s, 274° | 153 W/m² | - |
| 1778018109 | 12.78° C | 45% | 1008.1 hPa | 0 mm | 0.89 m/s, 257° | 141 W/m² | - |
| 1778017808 | 12.78° C | 43% | 1008.1 hPa | 0 mm | 0.89 m/s, 250° | 142 W/m² | - |
| 1778017509 | 12.78° C | 44% | 1008 hPa | 0 mm | 1.34 m/s, 249° | 155 W/m² | - |
| 1778017208 | 12.78° C | 46% | 1008 hPa | 0 mm | 1.34 m/s, 271° | 167 W/m² | - |
| 1778016909 | 12.78° C | 43% | 1008.3 hPa | 0 mm | 2.24 m/s, 245° | 174 W/m² | - |
| 1778016609 | 12.78° C | 46% | 1008.3 hPa | 0 mm | 1.34 m/s, 292° | 174 W/m² | - |
| 1778016308 | 12.78° C | 45% | 1008.4 hPa | 0 mm | 2.24 m/s, 295° | 181 W/m² | - |
* Rain latest hour (hover to see other rain measurements)
** Current wind speed in m/s (hover to see current wind gust speed)